Time,TemperatureF,DewpointF,PressureIn,WindDirection,WindDirectionDegrees,WindSpeedMPH,WindSpeedGustMPH,Humidity,HourlyPrecipIn,Conditions,Clouds,dailyrainin,SoftwareType,DateUTC
2013-03-18 00:00:00,30.1,23.5,29.78,South,177,2.0,3.0,76,0.00,,,0.02,VWS V14.01,2013-03-18 06:00:00,
2013-03-18 00:01:00,30.1,23.5,29.78,South,177,2.0,2.0,76,0.00,,,0.00,VWS V14.01,2013-03-18 06:01:00,
2013-03-18 00:05:00,30.5,23.5,29.78,ESE,106,3.0,3.0,75,0.00,,,0.00,VWS V14.01,2013-03-18 06:05:00,
2013-03-18 00:06:00,30.7,23.4,29.78,East,100,3.0,4.0,74,0.00,,,0.00,VWS V14.01,2013-03-18 06:06:00,
2013-03-18 00:10:00,30.5,22.9,29.78,SE,129,0.0,4.0,73,0.00,,,0.00,VWS V14.01,2013-03-18 06:10:00,
2013-03-18 00:11:00,30.2,22.9,29.78,ESE,120,3.0,4.0,74,0.00,,,0.00,VWS V14.01,2013-03-18 06:11:00,
2013-03-18 00:15:00,30.5,23.2,29.78,SE,143,2.0,4.0,74,0.00,,,0.00,VWS V14.01,2013-03-18 06:15:00,
2013-03-18 00:17:00,30.5,23.5,29.78,South,174,1.0,2.0,75,0.00,,,0.00,VWS V14.01,2013-03-18 06:17:00,
2013-03-18 00:20:00,30.2,23.2,29.78,SSE,165,1.0,3.0,75,0.00,,,0.00,VWS V14.01,2013-03-18 06:20:00,
2013-03-18 00:22:00,30.1,23.1,29.78,ESE,112,2.0,2.0,75,0.00,,,0.00,VWS V14.01,2013-03-18 06:22:00,
2013-03-18 00:25:00,30.1,23.1,29.78,SSE,167,2.0,3.0,75,0.00,,,0.00,VWS V14.01,2013-03-18 06:25:00,
2013-03-18 00:27:00,30.0,23.0,29.78,SE,132,1.0,3.0,75,0.00,,,0.00,VWS V14.01,2013-03-18 06:27:00,
2013-03-18 00:30:00,30.3,23.0,29.78,ESE,118,4.0,4.0,74,0.00,,,0.00,VWS V14.01,2013-03-18 06:30:00,
2013-03-18 00:32:00,30.8,22.5,29.78,ESE,115,1.0,4.0,71,0.00,,,0.00,VWS V14.01,2013-03-18 06:32:00,
2013-03-18 00:35:00,31.3,23.0,29.78,SSE,149,0.0,4.0,71,0.00,,,0.00,VWS V14.01,2013-03-18 06:35:00,
2013-03-18 00:37:00,31.4,22.8,29.78,ESE,108,2.0,3.0,70,0.00,,,0.00,VWS V14.01,2013-03-18 06:37:00,
2013-03-18 00:40:00,31.5,23.2,29.78,ESE,103,4.0,4.0,71,0.00,,,0.00,VWS V14.01,2013-03-18 06:40:00,
2013-03-18 00:42:00,31.6,23.6,29.78,SE,128,3.0,6.0,72,0.00,,,0.00,VWS V14.01,2013-03-18 06:42:00,
2013-03-18 00:45:00,31.5,24.2,29.77,SSE,165,6.0,9.0,74,0.00,,,0.00,VWS V14.01,2013-03-18 06:45:00,
2013-03-18 00:47:00,31.3,24.3,29.78,SE,138,3.0,6.0,75,0.00,,,0.00,VWS V14.01,2013-03-18 06:47:00,
2013-03-18 00:50:00,31.0,24.3,29.77,ESE,109,1.0,6.0,76,0.00,,,0.00,VWS V14.01,2013-03-18 06:50:00,
2013-03-18 00:52:00,30.9,24.9,29.77,SSE,167,2.0,4.0,78,0.00,,,0.00,VWS V14.01,2013-03-18 06:52:00,
2013-03-18 00:55:00,30.9,25.2,29.77,SSW,198,5.0,8.0,79,0.00,,,0.00,VWS V14.01,2013-03-18 06:55:00,
2013-03-18 00:57:00,31.0,25.3,29.77,SSE,165,4.0,10.0,79,0.00,,,0.00,VWS V14.01,2013-03-18 06:57:00,
2013-03-18 01:00:00,31.0,25.3,29.77,SSE,158,8.0,12.0,79,0.00,,,0.00,VWS V14.01,2013-03-18 07:00:00,
2013-03-18 01:02:00,31.1,25.4,29.77,SSE,165,6.0,10.0,79,0.00,,,0.00,VWS V14.01,2013-03-18 07:02:00,
2013-03-18 01:05:00,31.2,25.5,29.77,SE,145,5.0,10.0,79,0.00,,,0.00,VWS V14.01,2013-03-18 07:05:00,
2013-03-18 01:07:00,31.1,25.4,29.77,SSE,149,2.0,8.0,79,0.00,,,0.00,VWS V14.01,2013-03-18 07:07:00,
2013-03-18 01:10:00,31.1,25.7,29.77,SSE,153,7.0,10.0,80,0.00,,,0.00,VWS V14.01,2013-03-18 07:10:00,
2013-03-18 01:12:00,31.0,25.9,29.77,SSE,167,5.0,12.0,81,0.00,,,0.00,VWS V14.01,2013-03-18 07:12:00,
2013-03-18 01:15:00,31.0,25.6,29.77,South,181,4.0,12.0,80,0.00,,,0.00,VWS V14.01,2013-03-18 07:15:00,
2013-03-18 01:17:00,31.1,25.4,29.77,SSE,158,6.0,8.0,79,0.00,,,0.00,VWS V14.01,2013-03-18 07:17:00,
2013-03-18 01:20:00,31.1,25.4,29.77,SE,136,4.0,10.0,79,0.00,,,0.00,VWS V14.01,2013-03-18 07:20:00,
2013-03-18 01:22:00,31.0,25.6,29.77,SSE,149,11.0,15.0,80,0.00,,,0.00,VWS V14.01,2013-03-18 07:22:00,
2013-03-18 01:25:00,31.1,25.4,29.77,SSW,197,7.0,15.0,79,0.00,,,0.00,VWS V14.01,2013-03-18 07:25:00,
2013-03-18 01:27:00,31.2,25.5,29.77,SSE,162,5.0,11.0,79,0.00,,,0.00,VWS V14.01,2013-03-18 07:27:00,
2013-03-18 01:30:00,31.1,25.7,29.77,SSE,162,6.0,11.0,80,0.00,,,0.00,VWS V14.01,2013-03-18 07:30:00,
2013-03-18 01:32:00,30.9,25.8,29.77,SE,142,4.0,9.0,81,0.00,,,0.00,VWS V14.01,2013-03-18 07:32:00,
2013-03-18 01:35:00,30.9,25.8,29.77,SSE,162,8.0,12.0,81,0.00,,,0.00,VWS V14.01,2013-03-18 07:35:00,
2013-03-18 01:37:00,30.9,26.1,29.77,SSE,155,5.0,10.0,82,0.00,,,0.00,VWS V14.01,2013-03-18 07:37:00,
2013-03-18 01:40:00,30.8,26.0,29.77,SE,136,5.0,10.0,82,0.00,,,0.00,VWS V14.01,2013-03-18 07:40:00,
2013-03-18 01:42:00,30.8,26.0,29.77,SSE,158,4.0,10.0,82,0.00,,,0.00,VWS V14.01,2013-03-18 07:42:00,
2013-03-18 01:45:00,30.8,26.0,29.77,ESE,120,8.0,13.0,82,0.00,,,0.00,VWS V14.01,2013-03-18 07:45:00,
2013-03-18 01:47:00,30.9,25.5,29.77,SSE,148,7.0,12.0,80,0.00,,,0.00,VWS V14.01,2013-03-18 07:47:00,
2013-03-18 01:50:00,31.0,25.6,29.77,SSE,160,6.0,12.0,80,0.00,,,0.00,VWS V14.01,2013-03-18 07:50:00,
2013-03-18 01:52:00,31.0,25.6,29.77,SE,141,3.0,8.0,80,0.00,,,0.00,VWS V14.01,2013-03-18 07:52:00,
2013-03-18 01:55:00,31.0,25.6,29.77,SE,146,3.0,8.0,80,0.00,,,0.00,VWS V14.01,2013-03-18 07:55:00,
2013-03-18 01:57:00,31.0,25.3,29.77,SE,124,3.0,7.0,79,0.00,,,0.00,VWS V14.01,2013-03-18 07:57:00,
2013-03-18 02:00:00,30.9,25.2,29.77,SSE,150,3.0,7.0,79,0.00,,,0.00,VWS V14.01,2013-03-18 08:00:00,
2013-03-18 02:02:00,30.8,25.1,29.77,SE,142,1.0,4.0,79,0.00,,,0.00,VWS V14.01,2013-03-18 08:02:00,
2013-03-18 02:05:00,30.8,25.1,29.77,SE,145,2.0,4.0,79,0.00,,,0.00,VWS V14.01,2013-03-18 08:05:00,
2013-03-18 02:07:00,30.7,25.0,29.77,SSE,150,2.0,4.0,79,0.00,,,0.00,VWS V14.01,2013-03-18 08:07:00,
2013-03-18 02:10:00,30.7,24.7,29.77,South,169,2.0,4.0,78,0.00,,,0.00,VWS V14.01,2013-03-18 08:10:00,
2013-03-18 02:12:00,30.6,24.6,29.77,SSE,149,4.0,5.0,78,0.00,,,0.00,VWS V14.01,2013-03-18 08:12:00,
2013-03-18 02:15:00,30.6,24.3,29.77,SE,142,4.0,6.0,77,0.00,,,0.00,VWS V14.01,2013-03-18 08:15:00,
2013-03-18 02:17:00,30.8,24.1,29.77,SSE,148,2.0,4.0,76,0.00,,,0.00,VWS V14.01,2013-03-18 08:17:00,
2013-03-18 02:20:00,30.7,24.4,29.77,SSE,147,3.0,4.0,77,0.00,,,0.00,VWS V14.01,2013-03-18 08:20:00,
2013-03-18 02:22:00,30.7,23.4,29.77,West,262,6.0,16.0,74,0.00,,,0.00,VWS V14.01,2013-03-18 08:22:00,
2013-03-18 02:25:00,31.2,23.2,29.77,WSW,255,7.0,16.0,72,0.00,,,0.00,VWS V14.01,2013-03-18 08:25:00,
2013-03-18 02:27:00,31.6,23.3,29.77,South,176,7.0,15.0,71,0.00,,,0.00,VWS V14.01,2013-03-18 08:27:00,
2013-03-18 02:30:00,31.5,24.2,29.77,SSW,205,9.0,15.0,74,0.00,,,0.00,VWS V14.01,2013-03-18 08:30:00,
2013-03-18 02:32:00,31.1,23.8,29.78,SW,235,7.0,17.0,74,0.00,,,0.00,VWS V14.01,2013-03-18 08:32:00,
2013-03-18 02:35:00,30.7,24.4,29.78,SW,228,9.0,17.0,77,0.00,,,0.00,VWS V14.01,2013-03-18 08:35:00,
2013-03-18 02:38:00,30.1,25.0,29.78,West,267,8.0,11.0,81,0.00,,,0.00,VWS V14.01,2013-03-18 08:38:00,
2013-03-18 02:40:00,29.8,25.3,29.78,WSW,250,6.0,11.0,83,0.00,,,0.00,VWS V14.01,2013-03-18 08:40:00,
2013-03-18 02:43:00,29.4,25.7,29.78,West,270,4.0,11.0,86,0.00,,,0.00,VWS V14.01,2013-03-18 08:43:00,
2013-03-18 02:45:00,29.1,25.7,29.78,West,269,4.0,11.0,87,0.00,,,0.00,VWS V14.01,2013-03-18 08:45:00,
2013-03-18 02:48:00,28.9,25.5,29.78,West,264,4.0,9.0,87,0.00,,,0.00,VWS V14.01,2013-03-18 08:48:00,
2013-03-18 02:50:00,28.8,25.7,29.78,West,270,5.0,9.0,88,0.00,,,0.00,VWS V14.01,2013-03-18 08:50:00,
2013-03-18 02:53:00,28.6,25.5,29.78,WNW,295,2.0,6.0,88,0.00,,,0.00,VWS V14.01,2013-03-18 08:53:00,
2013-03-18 02:55:00,28.6,25.5,29.78,WNW,283,2.0,6.0,88,0.00,,,0.00,VWS V14.01,2013-03-18 08:55:00,
2013-03-18 02:58:00,28.5,25.4,29.78,West,271,1.0,4.0,88,0.00,,,0.00,VWS V14.01,2013-03-18 08:58:00,
2013-03-18 03:00:00,28.4,25.3,29.78,West,273,0.0,4.0,88,0.00,,,0.00,VWS V14.01,2013-03-18 09:00:00,
2013-03-18 03:03:00,28.3,25.2,29.78,West,273,0.0,0.0,88,0.00,,,0.00,VWS V14.01,2013-03-18 09:03:00,
2013-03-18 03:05:00,28.3,25.5,29.77,West,273,0.0,0.0,89,0.00,,,0.00,VWS V14.01,2013-03-18 09:05:00,
2013-03-18 03:08:00,28.2,25.4,29.77,West,273,1.0,1.0,89,0.00,,,0.00,VWS V14.01,2013-03-18 09:08:00,
2013-03-18 03:10:00,28.1,25.3,29.77,NNE,15,2.0,2.0,89,0.00,,,0.00,VWS V14.01,2013-03-18 09:10:00,
2013-03-18 03:13:00,28.1,25.3,29.77,NNE,15,1.0,2.0,89,0.00,,,0.00,VWS V14.01,2013-03-18 09:13:00,
2013-03-18 03:15:00,28.1,25.3,29.77,NNE,16,1.0,2.0,89,0.00,,,0.00,VWS V14.01,2013-03-18 09:15:00,
2013-03-18 03:18:00,28.1,25.3,29.77,NNE,15,1.0,2.0,89,0.00,,,0.00,VWS V14.01,2013-03-18 09:18:00,
2013-03-18 03:20:00,28.1,25.0,29.77,NNE,25,1.0,2.0,88,0.00,,,0.00,VWS V14.01,2013-03-18 09:20:00,
2013-03-18 03:23:00,28.0,24.9,29.77,SE,141,2.0,3.0,88,0.00,,,0.00,VWS V14.01,2013-03-18 09:23:00,
2013-03-18 03:25:00,27.9,24.8,29.77,East,100,2.0,3.0,88,0.00,,,0.00,VWS V14.01,2013-03-18 09:25:00,
2013-03-18 03:28:00,28.0,25.2,29.77,ESE,106,2.0,5.0,89,0.00,,,0.00,VWS V14.01,2013-03-18 09:28:00,
2013-03-18 03:30:00,28.0,25.2,29.77,East,80,1.0,5.0,89,0.00,,,0.00,VWS V14.01,2013-03-18 09:30:00,
2013-03-18 03:33:00,28.0,25.2,29.77,SSE,150,2.0,4.0,89,0.00,,,0.00,VWS V14.01,2013-03-18 09:33:00,
2013-03-18 03:35:00,28.1,25.3,29.77,ESE,105,3.0,4.0,89,0.00,,,0.00,VWS V14.01,2013-03-18 09:35:00,
2013-03-18 03:38:00,28.2,25.4,29.77,ESE,109,1.0,3.0,89,0.00,,,0.00,VWS V14.01,2013-03-18 09:38:00,
2013-03-18 03:40:00,28.2,25.1,29.77,East,101,1.0,3.0,88,0.00,,,0.00,VWS V14.01,2013-03-18 09:40:00,
2013-03-18 03:43:00,28.3,25.2,29.77,SE,129,0.0,2.0,88,0.00,,,0.00,VWS V14.01,2013-03-18 09:43:00,
2013-03-18 03:45:00,28.4,25.0,29.77,SE,130,0.0,2.0,87,0.00,,,0.00,VWS V14.01,2013-03-18 09:45:00,
2013-03-18 03:48:00,28.4,25.3,29.76,East,96,6.0,6.0,88,0.00,,,0.00,VWS V14.01,2013-03-18 09:48:00,
2013-03-18 03:50:00,28.6,25.5,29.76,East,98,5.0,6.0,88,0.00,,,0.00,VWS V14.01,2013-03-18 09:50:00,
2013-03-18 03:53:00,28.7,25.6,29.76,East,98,5.0,7.0,88,0.00,,,0.00,VWS V14.01,2013-03-18 09:53:00,
2013-03-18 03:55:00,28.9,25.8,29.76,East,97,6.0,10.0,88,0.00,,,0.00,VWS V14.01,2013-03-18 09:55:00,
2013-03-18 03:58:00,29.2,26.1,29.76,SSE,151,3.0,8.0,88,0.00,,,0.00,VWS V14.01,2013-03-18 09:58:00,
2013-03-18 04:00:00,29.3,25.9,29.76,SE,134,3.0,8.0,87,0.00,,,0.00,VWS V14.01,2013-03-18 10:00:00,
2013-03-18 04:03:00,29.5,25.8,29.76,ESE,123,5.0,8.0,86,0.00,,,0.00,VWS V14.01,2013-03-18 10:03:00,
2013-03-18 04:05:00,29.6,25.9,29.76,SE,129,4.0,8.0,86,0.00,,,0.00,VWS V14.01,2013-03-18 10:05:00,
2013-03-18 04:08:00,29.9,25.7,29.76,SE,136,5.0,9.0,84,0.00,,,0.00,VWS V14.01,2013-03-18 10:08:00,
2013-03-18 04:10:00,30.0,25.5,29.76,ESE,118,6.0,9.0,83,0.00,,,0.00,VWS V14.01,2013-03-18 10:10:00,
2013-03-18 04:13:00,30.2,25.4,29.76,ESE,114,3.0,7.0,82,0.00,,,0.00,VWS V14.01,2013-03-18 10:13:00,
2013-03-18 04:15:00,30.3,25.2,29.76,SSE,153,4.0,10.0,81,0.00,,,0.00,VWS V14.01,2013-03-18 10:15:00,
2013-03-18 04:18:00,30.4,25.3,29.75,SSE,166,4.0,8.0,81,0.00,,,0.00,VWS V14.01,2013-03-18 10:18:00,
2013-03-18 04:20:00,30.4,25.0,29.75,SSE,160,3.0,8.0,80,0.00,,,0.00,VWS V14.01,2013-03-18 10:20:00,
2013-03-18 04:23:00,30.4,25.0,29.75,ESE,108,6.0,10.0,80,0.00,,,0.00,VWS V14.01,2013-03-18 10:23:00,
2013-03-18 04:25:00,30.5,24.8,29.75,SE,133,7.0,10.0,79,0.00,,,0.00,VWS V14.01,2013-03-18 10:25:00,
2013-03-18 04:28:00,30.8,24.5,29.75,ESE,108,8.0,15.0,77,0.00,,,0.00,VWS V14.01,2013-03-18 10:28:00,
2013-03-18 04:30:00,30.8,24.8,29.75,SE,129,6.0,15.0,78,0.00,,,0.00,VWS V14.01,2013-03-18 10:30:00,
2013-03-18 04:33:00,30.7,24.7,29.75,SE,132,4.0,7.0,78,0.00,,,0.00,VWS V14.01,2013-03-18 10:33:00,
2013-03-18 04:35:00,30.6,24.6,29.75,SE,124,2.0,7.0,78,0.00,,,0.00,VWS V14.01,2013-03-18 10:35:00,
2013-03-18 04:38:00,30.6,24.3,29.75,SW,215,5.0,5.0,77,0.00,,,0.00,VWS V14.01,2013-03-18 10:38:00,
2013-03-18 04:40:00,30.7,24.0,29.75,SSE,165,2.0,5.0,76,0.00,,,0.00,VWS V14.01,2013-03-18 10:40:00,
2013-03-18 04:43:00,30.6,23.6,29.75,SE,139,4.0,4.0,75,0.00,,,0.00,VWS V14.01,2013-03-18 10:43:00,
2013-03-18 04:45:00,30.6,23.6,29.75,SE,136,2.0,4.0,75,0.00,,,0.00,VWS V14.01,2013-03-18 10:45:00,
2013-03-18 04:48:00,30.6,23.3,29.75,SSW,207,1.0,2.0,74,0.00,,,0.00,VWS V14.01,2013-03-18 10:48:00,
2013-03-18 04:50:00,30.6,23.0,29.75,WSW,239,0.0,2.0,73,0.00,,,0.00,VWS V14.01,2013-03-18 10:50:00,
2013-03-18 04:53:00,30.6,22.7,29.75,WNW,293,2.0,2.0,72,0.00,,,0.00,VWS V14.01,2013-03-18 10:53:00,
2013-03-18 04:55:00,30.6,23.0,29.75,NNE,12,3.0,4.0,73,0.00,,,0.00,VWS V14.01,2013-03-18 10:55:00,
2013-03-18 04:58:00,30.5,22.6,29.75,WSW,257,0.0,4.0,72,0.00,,,0.00,VWS V14.01,2013-03-18 10:58:00,
2013-03-18 05:00:00,30.6,22.7,29.75,WSW,257,0.0,4.0,72,0.00,,,0.00,VWS V14.01,2013-03-18 11:00:00,
2013-03-18 05:03:00,30.5,22.9,29.75,ESE,110,0.0,2.0,73,0.00,,,0.00,VWS V14.01,2013-03-18 11:03:00,
2013-03-18 05:05:00,30.4,22.8,29.75,ESE,110,1.0,2.0,73,0.00,,,0.00,VWS V14.01,2013-03-18 11:05:00,
2013-03-18 05:08:00,30.4,22.1,29.75,South,177,0.0,2.0,71,0.00,,,0.00,VWS V14.01,2013-03-18 11:08:00,
2013-03-18 05:10:00,30.4,22.1,29.75,South,177,0.0,2.0,71,0.00,,,0.00,VWS V14.01,2013-03-18 11:10:00,
2013-03-18 05:13:00,30.4,22.5,29.75,East,96,1.0,2.0,72,0.00,,,0.00,VWS V14.01,2013-03-18 11:13:00,
2013-03-18 05:15:00,30.5,22.6,29.75,East,79,1.0,2.0,72,0.00,,,0.00,VWS V14.01,2013-03-18 11:15:00,
2013-03-18 05:18:00,30.6,22.7,29.75,ESE,108,2.0,3.0,72,0.00,,,0.00,VWS V14.01,2013-03-18 11:18:00,
2013-03-18 05:20:00,30.6,22.7,29.75,SE,124,1.0,3.0,72,0.00,,,0.00,VWS V14.01,2013-03-18 11:20:00,
2013-03-18 05:23:00,30.6,22.7,29.75,SSE,149,3.0,3.0,72,0.00,,,0.00,VWS V14.01,2013-03-18 11:23:00,
2013-03-18 05:25:00,30.6,22.3,29.75,ESE,122,1.0,3.0,71,0.00,,,0.00,VWS V14.01,2013-03-18 11:25:00,
2013-03-18 05:29:00,30.7,21.4,29.75,SSE,158,2.0,5.0,68,0.00,,,0.00,VWS V14.01,2013-03-18 11:29:00,
2013-03-18 05:30:00,30.7,21.8,29.75,ESE,113,4.0,5.0,69,0.00,,,0.00,VWS V14.01,2013-03-18 11:30:00,
2013-03-18 05:34:00,30.7,22.4,29.75,SE,124,1.0,5.0,71,0.00,,,0.00,VWS V14.01,2013-03-18 11:34:00,
2013-03-18 05:35:00,30.6,22.7,29.75,WSW,245,3.0,5.0,72,0.00,,,0.00,VWS V14.01,2013-03-18 11:35:00,
2013-03-18 05:39:00,30.6,21.0,29.75,SSW,210,2.0,5.0,67,0.00,,,0.00,VWS V14.01,2013-03-18 11:39:00,
2013-03-18 05:40:00,30.7,20.7,29.75,NNE,25,3.0,5.0,66,0.00,,,0.00,VWS V14.01,2013-03-18 11:40:00,
2013-03-18 05:44:00,31.1,20.4,29.75,South,170,1.0,8.0,64,0.00,,,0.00,VWS V14.01,2013-03-18 11:44:00,
2013-03-18 05:45:00,31.1,20.7,29.75,SSE,147,3.0,8.0,65,0.00,,,0.00,VWS V14.01,2013-03-18 11:45:00,
2013-03-18 05:49:00,31.1,20.4,29.75,West,276,1.0,4.0,64,0.00,,,0.00,VWS V14.01,2013-03-18 11:49:00,
2013-03-18 05:50:00,31.0,20.3,29.75,West,260,2.0,4.0,64,0.00,,,0.00,VWS V14.01,2013-03-18 11:50:00,
2013-03-18 05:54:00,31.0,19.9,29.75,WNW,285,3.0,6.0,63,0.00,,,0.00,VWS V14.01,2013-03-18 11:54:00,
2013-03-18 05:55:00,31.0,19.9,29.75,WSW,255,4.0,6.0,63,0.00,,,0.00,VWS V14.01,2013-03-18 11:55:00,
2013-03-18 05:59:00,31.1,20.0,29.75,NW,304,2.0,5.0,63,0.00,,,0.00,VWS V14.01,2013-03-18 11:59:00,
2013-03-18 06:00:00,31.0,20.3,29.75,NW,307,2.0,5.0,64,0.00,,,0.00,VWS V14.01,2013-03-18 12:00:00,
2013-03-18 06:04:00,30.6,19.9,29.75,West,270,1.0,3.0,64,0.00,,,0.00,VWS V14.01,2013-03-18 12:04:00,
2013-03-18 06:05:00,30.6,19.9,29.75,West,269,0.0,3.0,64,0.00,,,0.00,VWS V14.01,2013-03-18 12:05:00,
2013-03-18 06:09:00,30.5,19.4,29.75,WSW,240,3.0,7.0,63,0.00,,,0.00,VWS V14.01,2013-03-18 12:09:00,
2013-03-18 06:10:00,30.5,19.8,29.75,WSW,246,3.0,7.0,64,0.00,,,0.00,VWS V14.01,2013-03-18 12:10:00,
2013-03-18 06:14:00,30.3,20.0,29.75,South,170,1.0,3.0,65,0.00,,,0.00,VWS V14.01,2013-03-18 12:14:00,
2013-03-18 06:15:00,30.3,20.0,29.75,SSE,162,1.0,3.0,65,0.00,,,0.00,VWS V14.01,2013-03-18 12:15:00,
2013-03-18 06:19:00,30.0,19.7,29.75,ESE,123,3.0,4.0,65,0.00,,,0.00,VWS V14.01,2013-03-18 12:19:00,
2013-03-18 06:20:00,29.9,19.6,29.75,SW,217,4.0,5.0,65,0.00,,,0.00,VWS V14.01,2013-03-18 12:20:00,
2013-03-18 06:24:00,30.0,19.7,29.75,South,184,4.0,5.0,65,0.00,,,0.00,VWS V14.01,2013-03-18 12:24:00,
2013-03-18 06:25:00,30.1,19.4,29.75,SW,231,5.0,5.0,64,0.00,,,0.00,VWS V14.01,2013-03-18 12:25:00,
2013-03-18 06:29:00,30.3,19.6,29.75,South,188,2.0,6.0,64,0.00,,,0.00,VWS V14.01,2013-03-18 12:29:00,
2013-03-18 06:30:00,30.3,19.6,29.75,West,269,4.0,6.0,64,0.00,,,0.00,VWS V14.01,2013-03-18 12:30:00,
2013-03-18 06:34:00,30.4,19.7,29.75,West,260,1.0,8.0,64,0.00,,,0.00,VWS V14.01,2013-03-18 12:34:00,
2013-03-18 06:35:00,30.3,20.0,29.75,West,266,2.0,8.0,65,0.00,,,0.00,VWS V14.01,2013-03-18 12:35:00,
2013-03-18 06:39:00,30.0,19.7,29.75,WSW,239,1.0,4.0,65,0.00,,,0.00,VWS V14.01,2013-03-18 12:39:00,
2013-03-18 06:40:00,30.0,19.7,29.75,WSW,239,1.0,4.0,65,0.00,,,0.00,VWS V14.01,2013-03-18 12:40:00,
2013-03-18 06:44:00,29.8,19.1,29.75,SSW,207,0.0,2.0,64,0.00,,,0.00,VWS V14.01,2013-03-18 12:44:00,
2013-03-18 06:45:00,29.8,19.5,29.75,SSW,207,0.0,2.0,65,0.00,,,0.00,VWS V14.01,2013-03-18 12:45:00,
2013-03-18 06:49:00,29.4,19.1,29.75,WSW,238,2.0,4.0,65,0.00,,,0.00,VWS V14.01,2013-03-18 12:49:00,
2013-03-18 06:50:00,29.4,19.1,29.75,WSW,248,4.0,4.0,65,0.00,,,0.00,VWS V14.01,2013-03-18 12:50:00,
2013-03-18 06:54:00,29.3,19.4,29.74,SSW,198,3.0,5.0,66,0.00,,,0.00,VWS V14.01,2013-03-18 12:54:00,
2013-03-18 06:55:00,29.3,19.4,29.74,SE,145,2.0,5.0,66,0.00,,,0.00,VWS V14.01,2013-03-18 12:55:00,
2013-03-18 06:59:00,29.3,19.4,29.75,WSW,240,0.0,3.0,66,0.00,,,0.00,VWS V14.01,2013-03-18 12:59:00,
2013-03-18 07:00:00,29.3,19.4,29.75,WSW,240,0.0,3.0,66,0.00,,,0.00,VWS V14.01,2013-03-18 13:00:00,
2013-03-18 07:04:00,29.3,19.4,29.75,WNW,302,1.0,2.0,66,0.00,,,0.00,VWS V14.01,2013-03-18 13:04:00,
2013-03-18 07:05:00,29.2,19.3,29.75,WNW,302,1.0,2.0,66,0.00,,,0.00,VWS V14.01,2013-03-18 13:05:00,
2013-03-18 07:09:00,28.9,19.3,29.75,WNW,302,0.0,1.0,67,0.00,,,0.00,VWS V14.01,2013-03-18 13:09:00,
2013-03-18 07:10:00,28.9,19.3,29.75,WNW,302,0.0,1.0,67,0.00,,,0.00,VWS V14.01,2013-03-18 13:10:00,
2013-03-18 07:14:00,28.7,19.1,29.75,WNW,302,0.0,0.0,67,0.00,,,0.00,VWS V14.01,2013-03-18 13:14:00,
2013-03-18 07:15:00,28.6,19.0,29.75,WNW,302,0.0,0.0,67,0.00,,,0.00,VWS V14.01,2013-03-18 13:15:00,
2013-03-18 07:19:00,28.4,19.2,29.76,East,100,1.0,1.0,68,0.00,,,0.00,VWS V14.01,2013-03-18 13:19:00,
2013-03-18 07:20:00,28.4,19.2,29.76,East,94,1.0,1.0,68,0.00,,,0.00,VWS V14.01,2013-03-18 13:20:00,
2013-03-18 07:24:00,28.8,19.6,29.76,SE,124,2.0,2.0,68,0.00,,,0.00,VWS V14.01,2013-03-18 13:24:00,
2013-03-18 07:25:00,28.8,19.6,29.76,ESE,114,1.0,2.0,68,0.00,,,0.00,VWS V14.01,2013-03-18 13:25:00,
2013-03-18 07:29:00,28.4,19.5,29.76,NE,53,2.0,3.0,69,0.00,,,0.00,VWS V14.01,2013-03-18 13:29:00,
2013-03-18 07:30:00,28.3,19.5,29.76,NE,54,2.0,3.0,69,0.00,,,0.00,VWS V14.01,2013-03-18 13:30:00,
2013-03-18 07:34:00,28.0,19.5,29.76,ENE,65,3.0,5.0,70,0.00,,,0.00,VWS V14.01,2013-03-18 13:34:00,
2013-03-18 07:35:00,27.9,19.4,29.76,ENE,64,2.0,5.0,70,0.00,,,0.00,VWS V14.01,2013-03-18 13:35:00,
2013-03-18 07:39:00,26.9,19.4,29.77,NE,37,2.0,3.0,73,0.00,,,0.00,VWS V14.01,2013-03-18 13:39:00,
2013-03-18 07:40:00,26.8,19.3,29.77,NE,37,2.0,3.0,73,0.00,,,0.00,VWS V14.01,2013-03-18 13:40:00,
2013-03-18 07:44:00,26.9,20.0,29.77,ENE,60,4.0,5.0,75,0.00,,,0.00,VWS V14.01,2013-03-18 13:44:00,
2013-03-18 07:45:00,27.0,20.1,29.77,ENE,66,4.0,5.0,75,0.00,,,0.00,VWS V14.01,2013-03-18 13:45:00,
2013-03-18 07:49:00,28.0,20.8,29.76,ENE,71,3.0,5.0,74,0.00,,,0.00,VWS V14.01,2013-03-18 13:49:00,
2013-03-18 07:50:00,28.0,20.8,29.76,ENE,72,3.0,5.0,74,0.00,,,0.00,VWS V14.01,2013-03-18 13:50:00,
2013-03-18 07:54:00,28.3,21.1,29.76,ENE,77,4.0,5.0,74,0.00,,,0.00,VWS V14.01,2013-03-18 13:54:00,
2013-03-18 07:55:00,28.3,21.1,29.76,ENE,75,3.0,5.0,74,0.00,,,0.00,VWS V14.01,2013-03-18 13:55:00,
2013-03-18 07:59:00,28.6,21.7,29.76,East,100,2.0,4.0,75,0.00,,,0.00,VWS V14.01,2013-03-18 13:59:00,
2013-03-18 08:00:00,28.6,21.7,29.76,East,100,3.0,4.0,75,0.00,,,0.00,VWS V14.01,2013-03-18 14:00:00,
2013-03-18 08:04:00,28.5,21.9,29.76,ESE,122,2.0,3.0,76,0.00,,,0.00,VWS V14.01,2013-03-18 14:04:00,
2013-03-18 08:05:00,28.5,21.9,29.76,ESE,116,3.0,3.0,76,0.00,,,0.00,VWS V14.01,2013-03-18 14:05:00,
2013-03-18 08:09:00,28.7,22.4,29.76,East,82,2.0,4.0,77,0.00,,,0.00,VWS V14.01,2013-03-18 14:09:00,
2013-03-18 08:10:00,28.7,22.4,29.76,East,91,1.0,4.0,77,0.00,,,0.00,VWS V14.01,2013-03-18 14:10:00,
2013-03-18 08:14:00,29.0,22.4,29.77,ESE,116,2.0,3.0,76,0.00,,,0.00,VWS V14.01,2013-03-18 14:14:00,
2013-03-18 08:15:00,29.0,22.4,29.77,ESE,121,2.0,3.0,76,0.00,,,0.00,VWS V14.01,2013-03-18 14:15:00,
2013-03-18 08:19:00,29.2,22.6,29.77,ESE,115,0.0,2.0,76,0.00,,,0.00,VWS V14.01,2013-03-18 14:19:00,
2013-03-18 08:20:00,29.1,22.2,29.77,ESE,116,0.0,2.0,75,0.00,,,0.00,VWS V14.01,2013-03-18 14:20:00,
2013-03-18 08:24:00,29.3,22.7,29.77,ESE,116,0.0,0.0,76,0.00,,,0.00,VWS V14.01,2013-03-18 14:24:00,
2013-03-18 08:25:00,29.3,22.7,29.77,ESE,115,0.0,0.0,76,0.00,,,0.00,VWS V14.01,2013-03-18 14:25:00,
2013-03-18 08:29:00,29.3,22.4,29.77,ESE,116,0.0,1.0,75,0.00,,,0.00,VWS V14.01,2013-03-18 14:29:00,
2013-03-18 08:30:00,29.3,22.4,29.77,ESE,115,0.0,1.0,75,0.00,,,0.00,VWS V14.01,2013-03-18 14:30:00,
2013-03-18 08:34:00,29.4,22.5,29.78,North,354,1.0,3.0,75,0.00,,,0.00,VWS V14.01,2013-03-18 14:34:00,
2013-03-18 08:35:00,29.5,22.6,29.78,North,354,1.0,3.0,75,0.00,,,0.00,VWS V14.01,2013-03-18 14:35:00,
2013-03-18 08:39:00,29.5,22.9,29.78,East,79,3.0,3.0,76,0.00,,,0.00,VWS V14.01,2013-03-18 14:39:00,
2013-03-18 08:40:00,29.5,22.9,29.78,East,79,2.0,3.0,76,0.00,,,0.00,VWS V14.01,2013-03-18 14:40:00,
2013-03-18 08:44:00,29.9,23.3,29.78,ENE,73,0.0,3.0,76,0.00,,,0.00,VWS V14.01,2013-03-18 14:44:00,
2013-03-18 08:45:00,29.9,23.3,29.78,ENE,73,0.0,3.0,76,0.00,,,0.00,VWS V14.01,2013-03-18 14:45:00,
2013-03-18 08:49:00,30.0,23.0,29.78,ESE,120,3.0,3.0,75,0.00,,,0.00,VWS V14.01,2013-03-18 14:49:00,
2013-03-18 08:50:00,30.0,23.0,29.78,ESE,109,2.0,3.0,75,0.00,,,0.00,VWS V14.01,2013-03-18 14:50:00,
2013-03-18 08:54:00,30.3,23.0,29.78,SSE,152,2.0,2.0,74,0.00,,,0.00,VWS V14.01,2013-03-18 14:54:00,
2013-03-18 08:55:00,30.3,23.0,29.78,SSE,155,2.0,2.0,74,0.00,,,0.00,VWS V14.01,2013-03-18 14:55:00,
2013-03-18 08:59:00,30.6,23.3,29.78,SE,146,1.0,3.0,74,0.00,,,0.00,VWS V14.01,2013-03-18 14:59:00,
2013-03-18 09:00:00,30.6,23.3,29.78,SE,137,1.0,3.0,74,0.00,,,0.00,VWS V14.01,2013-03-18 15:00:00,
2013-03-18 09:04:00,30.9,23.3,29.78,SW,222,0.0,3.0,73,0.00,,,0.00,VWS V14.01,2013-03-18 15:04:00,
2013-03-18 09:05:00,30.9,23.3,29.78,SW,224,0.0,3.0,73,0.00,,,0.00,VWS V14.01,2013-03-18 15:05:00,
2013-03-18 09:09:00,31.0,23.4,29.78,WSW,242,0.0,1.0,73,0.00,,,0.00,VWS V14.01,2013-03-18 15:09:00,
2013-03-18 09:10:00,31.1,23.5,29.78,WSW,242,0.0,1.0,73,0.00,,,0.00,VWS V14.01,2013-03-18 15:10:00,
2013-03-18 09:15:00,31.2,22.6,29.78,SE,144,2.0,2.0,70,0.00,,,0.00,VWS V14.01,2013-03-18 15:15:00,
2013-03-18 09:20:00,31.4,22.4,29.78,SSW,204,2.0,3.0,69,0.00,,,0.00,VWS V14.01,2013-03-18 15:20:00,
2013-03-18 09:25:00,31.5,21.5,29.78,South,187,5.0,8.0,66,0.00,,,0.00,VWS V14.01,2013-03-18 15:25:00,
2013-03-18 09:30:00,31.6,21.9,29.77,SW,224,4.0,6.0,67,0.00,,,0.00,VWS V14.01,2013-03-18 15:30:00,
2013-03-18 09:35:00,31.6,22.3,29.77,South,190,1.0,4.0,68,0.00,,,0.00,VWS V14.01,2013-03-18 15:35:00,
2013-03-18 09:40:00,31.7,21.3,29.77,West,269,1.0,3.0,65,0.00,,,0.00,VWS V14.01,2013-03-18 15:40:00,
2013-03-18 09:45:00,31.7,20.9,29.77,WSW,245,0.0,2.0,64,0.00,,,0.00,VWS V14.01,2013-03-18 15:45:00,
2013-03-18 09:50:00,31.8,21.0,29.78,WSW,245,0.0,1.0,64,0.00,,,0.00,VWS V14.01,2013-03-18 15:50:00,
2013-03-18 09:55:00,31.9,21.9,29.78,WSW,245,0.0,0.0,66,0.00,,,0.00,VWS V14.01,2013-03-18 15:55:00,
2013-03-18 10:00:00,32.1,22.0,29.78,SSW,197,2.0,3.0,66,0.00,,,0.00,VWS V14.01,2013-03-18 16:00:00,
2013-03-18 10:05:00,32.3,22.2,29.78,SSE,158,3.0,4.0,66,0.00,,,0.00,VWS V14.01,2013-03-18 16:05:00,
2013-03-18 10:10:00,32.3,21.9,29.78,ESE,117,3.0,4.0,65,0.00,,,0.00,VWS V14.01,2013-03-18 16:10:00,
2013-03-18 10:15:00,32.3,22.6,29.78,SE,135,5.0,5.0,67,0.00,,,0.00,VWS V14.01,2013-03-18 16:15:00,
2013-03-18 10:20:00,32.2,23.5,29.78,SE,136,3.0,5.0,70,0.00,,,0.00,VWS V14.01,2013-03-18 16:20:00,
2013-03-18 10:25:00,32.2,23.5,29.78,ESE,111,2.0,4.0,70,0.00,,,0.00,VWS V14.01,2013-03-18 16:25:00,
2013-03-18 10:30:00,32.3,23.3,29.78,SE,143,2.0,7.0,69,0.00,,,0.00,VWS V14.01,2013-03-18 16:30:00,
2013-03-18 10:35:00,32.3,22.6,29.78,SSW,207,1.0,4.0,67,0.00,,,0.00,VWS V14.01,2013-03-18 16:35:00,
2013-03-18 10:40:00,32.5,22.4,29.77,SSE,149,3.0,8.0,66,0.00,,,0.00,VWS V14.01,2013-03-18 16:40:00,
2013-03-18 10:45:00,32.7,21.5,29.77,WSW,250,4.0,6.0,63,0.00,,,0.00,VWS V14.01,2013-03-18 16:45:00,
2013-03-18 10:50:00,32.8,22.3,29.77,SSE,163,3.0,7.0,65,0.00,,,0.00,VWS V14.01,2013-03-18 16:50:00,
2013-03-18 10:55:00,33.0,22.5,29.77,West,276,2.0,4.0,65,0.00,,,0.00,VWS V14.01,2013-03-18 16:55:00,
2013-03-18 11:00:00,33.3,20.9,29.77,WSW,255,5.0,9.0,60,0.00,,,0.00,VWS V14.01,2013-03-18 17:00:00,
2013-03-18 11:05:00,33.4,20.6,29.78,West,269,4.0,9.0,59,0.00,,,0.00,VWS V14.01,2013-03-18 17:05:00,
2013-03-18 11:10:00,33.6,21.2,29.77,WNW,294,3.0,8.0,60,0.00,,,0.00,VWS V14.01,2013-03-18 17:10:00,
2013-03-18 11:15:00,33.7,20.9,29.78,WSW,251,9.0,9.0,59,0.00,,,0.00,VWS V14.01,2013-03-18 17:15:00,
2013-03-18 11:20:00,33.9,21.1,29.77,WNW,293,4.0,9.0,59,0.00,,,0.00,VWS V14.01,2013-03-18 17:20:00,
2013-03-18 11:25:00,33.9,20.7,29.77,WSW,239,8.0,9.0,58,0.00,,,0.00,VWS V14.01,2013-03-18 17:25:00,
2013-03-18 11:30:00,34.1,20.9,29.77,WSW,239,9.0,11.0,58,0.00,,,0.00,VWS V14.01,2013-03-18 17:30:00,
2013-03-18 11:35:00,34.1,21.7,29.77,WSW,252,11.0,11.0,60,0.00,,,0.00,VWS V14.01,2013-03-18 17:35:00,
2013-03-18 11:40:00,34.1,20.5,29.77,WSW,255,6.0,8.0,57,0.00,,,0.00,VWS V14.01,2013-03-18 17:40:00,
2013-03-18 11:45:00,34.1,20.9,29.77,SW,235,6.0,6.0,58,0.00,,,0.00,VWS V14.01,2013-03-18 17:45:00,
2013-03-18 11:50:00,34.4,21.6,29.77,West,273,11.0,11.0,59,0.00,,,0.00,VWS V14.01,2013-03-18 17:50:00,
2013-03-18 11:55:00,34.5,20.0,29.77,WSW,254,8.0,8.0,55,0.00,,,0.00,VWS V14.01,2013-03-18 17:55:00,
2013-03-18 12:00:00,34.5,20.0,29.77,WNW,301,5.0,9.0,55,0.00,,,0.00,VWS V14.01,2013-03-18 18:00:00,
2013-03-18 12:05:00,34.5,21.7,29.77,NW,321,6.0,10.0,59,0.00,,,0.00,VWS V14.01,2013-03-18 18:05:00,
2013-03-18 12:10:00,34.5,20.9,29.77,West,274,6.0,11.0,57,0.00,,,0.00,VWS V14.01,2013-03-18 18:10:00,
2013-03-18 12:15:00,34.6,22.5,29.77,West,274,7.0,13.0,61,0.00,,,0.00,VWS V14.01,2013-03-18 18:15:00,
2013-03-18 12:20:00,34.6,21.4,29.77,WNW,283,7.0,10.0,58,0.00,,,0.00,VWS V14.01,2013-03-18 18:20:00,
2013-03-18 12:25:00,34.7,21.9,29.77,WNW,300,8.0,8.0,59,0.00,,,0.00,VWS V14.01,2013-03-18 18:25:00,
2013-03-18 12:30:00,34.8,21.5,29.77,West,277,6.0,7.0,58,0.00,,,0.00,VWS V14.01,2013-03-18 18:30:00,
2013-03-18 12:35:00,35.0,22.1,29.76,West,278,7.0,9.0,59,0.00,,,0.00,VWS V14.01,2013-03-18 18:35:00,
2013-03-18 12:40:00,35.4,21.7,29.76,SSW,205,8.0,13.0,57,0.00,,,0.00,VWS V14.01,2013-03-18 18:40:00,
2013-03-18 12:45:00,35.3,22.0,29.76,West,278,11.0,14.0,58,0.00,,,0.00,VWS V14.01,2013-03-18 18:45:00,
2013-03-18 12:50:00,35.6,23.1,29.76,WSW,246,12.0,14.0,60,0.00,,,0.00,VWS V14.01,2013-03-18 18:50:00,
2013-03-18 12:55:00,35.6,23.5,29.76,WSW,257,9.0,14.0,61,0.00,,,0.00,VWS V14.01,2013-03-18 18:55:00,
2013-03-18 13:00:00,35.4,23.3,29.76,West,266,11.0,12.0,61,0.00,,,0.00,VWS V14.01,2013-03-18 19:00:00,
2013-03-18 13:10:00,36.0,23.5,29.76,WNW,290,7.0,7.0,60,0.00,,,0.00,VWS V14.01,2013-03-18 19:10:00,
2013-03-18 13:15:00,36.4,22.2,29.75,NW,316,12.0,13.0,56,0.00,,,0.00,VWS V14.01,2013-03-18 19:15:00,
2013-03-18 13:20:00,36.2,22.9,29.75,West,277,7.0,19.0,58,0.00,,,0.00,VWS V14.01,2013-03-18 19:20:00,
2013-03-18 13:25:00,35.9,21.8,29.75,West,276,13.0,19.0,56,0.00,,,0.00,VWS V14.01,2013-03-18 19:25:00,
2013-03-18 13:30:00,35.6,22.3,29.76,WNW,283,10.0,10.0,58,0.00,,,0.00,VWS V14.01,2013-03-18 19:30:00,
2013-03-18 13:35:00,35.7,22.0,29.75,West,280,8.0,14.0,57,0.00,,,0.00,VWS V14.01,2013-03-18 19:35:00,
2013-03-18 13:40:00,35.9,21.8,29.75,WNW,283,11.0,16.0,56,0.00,,,0.00,VWS V14.01,2013-03-18 19:40:00,
2013-03-18 13:45:00,36.0,21.8,29.75,West,274,11.0,11.0,56,0.00,,,0.00,VWS V14.01,2013-03-18 19:45:00,
2013-03-18 13:50:00,36.3,23.0,29.75,West,260,6.0,10.0,58,0.00,,,0.00,VWS V14.01,2013-03-18 19:50:00,
2013-03-18 13:55:00,36.2,22.5,29.75,West,262,9.0,16.0,57,0.00,,,0.00,VWS V14.01,2013-03-18 19:55:00,
2013-03-18 14:00:00,36.2,22.9,29.75,WSW,253,15.0,15.0,58,0.00,,,0.00,VWS V14.01,2013-03-18 20:00:00,
2013-03-18 14:05:00,36.1,22.4,29.75,West,280,10.0,16.0,57,0.00,,,0.00,VWS V14.01,2013-03-18 20:05:00,
2013-03-18 14:10:00,35.9,22.2,29.75,West,263,10.0,22.0,57,0.00,,,0.00,VWS V14.01,2013-03-18 20:10:00,
2013-03-18 14:11:00,35.9,21.3,29.75,WSW,256,12.0,15.0,55,0.00,,,0.00,VWS V14.01,2013-03-18 20:11:00,
2013-03-18 14:15:00,36.4,23.0,29.75,WNW,297,8.0,18.0,58,0.00,,,0.00,VWS V14.01,2013-03-18 20:15:00,
2013-03-18 14:16:00,36.5,23.1,29.75,WSW,249,11.0,15.0,58,0.00,,,0.00,VWS V14.01,2013-03-18 20:16:00,
2013-03-18 14:20:00,37.2,24.6,29.75,West,279,4.0,15.0,60,0.00,,,0.00,VWS V14.01,2013-03-18 20:20:00,
2013-03-18 14:21:00,37.3,23.9,29.75,WNW,301,9.0,11.0,58,0.00,,,0.00,VWS V14.01,2013-03-18 20:21:00,
2013-03-18 14:25:00,37.6,24.2,29.75,WNW,297,16.0,20.0,58,0.00,,,0.00,VWS V14.01,2013-03-18 20:25:00,
2013-03-18 14:26:00,37.6,23.3,29.75,West,267,20.0,20.0,56,0.00,,,0.00,VWS V14.01,2013-03-18 20:26:00,
2013-03-18 14:30:00,37.7,22.6,29.75,West,267,10.0,20.0,54,0.00,,,0.00,VWS V14.01,2013-03-18 20:30:00,
2013-03-18 14:31:00,37.7,23.0,29.75,West,271,15.0,19.0,55,0.00,,,0.00,VWS V14.01,2013-03-18 20:31:00,
2013-03-18 14:35:00,37.8,24.0,29.75,WNW,298,9.0,20.0,57,0.00,,,0.00,VWS V14.01,2013-03-18 20:35:00,
2013-03-18 14:36:00,37.8,23.1,29.75,WSW,255,11.0,13.0,55,0.00,,,0.00,VWS V14.01,2013-03-18 20:36:00,
2013-03-18 14:40:00,37.6,22.0,29.74,West,266,14.0,19.0,53,0.00,,,0.00,VWS V14.01,2013-03-18 20:40:00,
2013-03-18 14:41:00,37.7,21.7,29.75,NW,304,13.0,18.0,52,0.00,,,0.00,VWS V14.01,2013-03-18 20:41:00,
2013-03-18 14:45:00,37.7,22.6,29.75,WNW,283,10.0,18.0,54,0.00,,,0.00,VWS V14.01,2013-03-18 20:45:00,
2013-03-18 14:46:00,37.7,23.4,29.75,WNW,284,9.0,13.0,56,0.00,,,0.00,VWS V14.01,2013-03-18 20:46:00,
2013-03-18 14:50:00,37.6,22.0,29.75,WSW,248,21.0,21.0,53,0.00,,,0.00,VWS V14.01,2013-03-18 20:50:00,
2013-03-18 14:51:00,37.6,22.0,29.74,West,274,17.0,21.0,53,0.00,,,0.00,VWS V14.01,2013-03-18 20:51:00,
2013-03-18 14:55:00,37.8,22.7,29.74,West,263,10.0,25.0,54,0.00,,,0.00,VWS V14.01,2013-03-18 20:55:00,
2013-03-18 14:56:00,37.9,21.9,29.74,WNW,295,12.0,17.0,52,0.00,,,0.00,VWS V14.01,2013-03-18 20:56:00,
2013-03-18 15:00:00,37.9,22.8,29.74,West,267,10.0,17.0,54,0.00,,,0.00,VWS V14.01,2013-03-18 21:00:00,
2013-03-18 15:01:00,37.9,21.9,29.74,West,273,9.0,21.0,52,0.00,,,0.00,VWS V14.01,2013-03-18 21:01:00,
2013-03-18 15:05:00,38.0,22.0,29.74,West,267,12.0,21.0,52,0.00,,,0.00,VWS V14.01,2013-03-18 21:05:00,
2013-03-18 15:07:00,37.9,22.3,29.74,WNW,285,10.0,20.0,53,0.00,,,0.00,VWS V14.01,2013-03-18 21:07:00,
2013-03-18 15:10:00,37.5,22.4,29.74,WNW,302,12.0,20.0,54,0.00,,,0.00,VWS V14.01,2013-03-18 21:10:00,
2013-03-18 15:12:00,37.5,22.8,29.74,West,267,10.0,16.0,55,0.00,,,0.00,VWS V14.01,2013-03-18 21:12:00,
2013-03-18 15:15:00,37.2,21.7,29.74,West,279,11.0,16.0,53,0.00,,,0.00,VWS V14.01,2013-03-18 21:15:00,
2013-03-18 15:17:00,37.3,22.2,29.74,WSW,257,12.0,16.0,54,0.00,,,0.00,VWS V14.01,2013-03-18 21:17:00,
2013-03-18 15:20:00,37.2,22.1,29.74,WNW,295,12.0,21.0,54,0.00,,,0.00,VWS V14.01,2013-03-18 21:20:00,
2013-03-18 15:22:00,37.1,22.4,29.74,West,267,20.0,23.0,55,0.00,,,0.00,VWS V14.01,2013-03-18 21:22:00,
2013-03-18 15:25:00,36.5,22.7,29.74,WNW,290,14.0,25.0,57,0.00,,,0.00,VWS V14.01,2013-03-18 21:25:00,
2013-03-18 15:27:00,36.3,22.5,29.75,NW,319,11.0,22.0,57,0.00,,,0.00,VWS V14.01,2013-03-18 21:27:00,
2013-03-18 15:30:00,36.0,22.7,29.75,West,262,18.0,22.0,58,0.00,,,0.00,VWS V14.01,2013-03-18 21:30:00,
2013-03-18 15:32:00,36.0,23.5,29.75,West,267,16.0,18.0,60,0.00,,,0.00,VWS V14.01,2013-03-18 21:32:00,
2013-03-18 15:35:00,36.1,24.0,29.75,West,267,12.0,18.0,61,0.00,,,0.00,VWS V14.01,2013-03-18 21:35:00,
2013-03-18 15:37:00,36.1,24.0,29.75,WSW,255,13.0,17.0,61,0.00,,,0.00,VWS V14.01,2013-03-18 21:37:00,
2013-03-18 15:40:00,35.9,23.4,29.75,West,281,14.0,19.0,60,0.00,,,0.00,VWS V14.01,2013-03-18 21:40:00,
2013-03-18 15:42:00,35.7,23.6,29.75,West,278,8.0,19.0,61,0.00,,,0.00,VWS V14.01,2013-03-18 21:42:00,
2013-03-18 15:45:00,35.7,24.4,29.75,SW,233,12.0,19.0,63,0.00,,,0.00,VWS V14.01,2013-03-18 21:45:00,
2013-03-18 15:47:00,35.7,24.7,29.75,WNW,285,11.0,15.0,64,0.00,,,0.00,VWS V14.01,2013-03-18 21:47:00,
2013-03-18 15:50:00,35.5,24.5,29.75,WSW,252,11.0,17.0,64,0.00,,,0.00,VWS V14.01,2013-03-18 21:50:00,
2013-03-18 15:52:00,35.7,25.5,29.75,West,274,6.0,13.0,66,0.00,,,0.00,VWS V14.01,2013-03-18 21:52:00,
2013-03-18 15:55:00,36.1,25.9,29.75,NW,304,11.0,13.0,66,0.00,,,0.00,VWS V14.01,2013-03-18 21:55:00,
2013-03-18 15:57:00,36.0,24.6,29.75,NW,304,8.0,12.0,63,0.00,,,0.00,VWS V14.01,2013-03-18 21:57:00,
2013-03-18 16:00:00,36.0,25.0,29.75,West,260,9.0,15.0,64,0.00,,,0.00,VWS V14.01,2013-03-18 22:00:00,
2013-03-18 16:02:00,36.1,25.1,29.75,West,271,8.0,11.0,64,0.00,,,0.00,VWS V14.01,2013-03-18 22:02:00,
2013-03-18 16:05:00,36.5,25.9,29.75,WSW,238,6.0,11.0,65,0.00,,,0.00,VWS V14.01,2013-03-18 22:05:00,
2013-03-18 16:07:00,36.8,25.4,29.75,West,274,4.0,9.0,63,0.00,,,0.00,VWS V14.01,2013-03-18 22:07:00,
2013-03-18 16:10:00,37.3,25.9,29.75,WNW,292,5.0,10.0,63,0.00,,,0.00,VWS V14.01,2013-03-18 22:10:00,
2013-03-18 16:12:00,37.5,25.3,29.74,NW,311,2.0,7.0,61,0.00,,,0.00,VWS V14.01,2013-03-18 22:12:00,
2013-03-18 16:15:00,37.6,25.4,29.75,West,280,6.0,11.0,61,0.00,,,0.00,VWS V14.01,2013-03-18 22:15:00,
2013-03-18 16:17:00,37.7,25.9,29.74,NW,314,9.0,12.0,62,0.00,,,0.00,VWS V14.01,2013-03-18 22:17:00,
2013-03-18 16:20:00,38.1,25.1,29.74,WSW,253,12.0,14.0,59,0.00,,,0.00,VWS V14.01,2013-03-18 22:20:00,
2013-03-18 16:22:00,38.1,25.5,29.75,WSW,242,5.0,12.0,60,0.00,,,0.00,VWS V14.01,2013-03-18 22:22:00,
2013-03-18 16:25:00,38.4,24.5,29.74,WSW,244,12.0,17.0,57,0.00,,,0.00,VWS V14.01,2013-03-18 22:25:00,
2013-03-18 16:27:00,38.2,23.5,29.74,West,264,8.0,14.0,55,0.00,,,0.00,VWS V14.01,2013-03-18 22:27:00,
2013-03-18 16:30:00,38.3,24.0,29.74,WNW,298,7.0,14.0,56,0.00,,,0.00,VWS V14.01,2013-03-18 22:30:00,
2013-03-18 16:32:00,38.8,24.9,29.74,WSW,255,13.0,15.0,57,0.00,,,0.00,VWS V14.01,2013-03-18 22:32:00,
2013-03-18 16:35:00,38.9,22.3,29.74,NW,304,5.0,19.0,51,0.00,,,0.00,VWS V14.01,2013-03-18 22:35:00,
2013-03-18 16:37:00,39.1,23.9,29.74,WNW,297,9.0,13.0,54,0.00,,,0.00,VWS V14.01,2013-03-18 22:37:00,
2013-03-18 16:40:00,39.2,22.6,29.74,NW,307,5.0,17.0,51,0.00,,,0.00,VWS V14.01,2013-03-18 22:40:00,
2013-03-18 16:42:00,39.6,24.3,29.74,WNW,290,7.0,10.0,54,0.00,,,0.00,VWS V14.01,2013-03-18 22:42:00,
2013-03-18 16:45:00,39.9,23.7,29.75,WNW,300,4.0,11.0,52,0.00,,,0.00,VWS V14.01,2013-03-18 22:45:00,
2013-03-18 16:47:00,40.1,23.4,29.75,WNW,287,14.0,14.0,51,0.00,,,0.00,VWS V14.01,2013-03-18 22:47:00,
2013-03-18 16:50:00,39.6,22.0,29.75,WSW,248,3.0,19.0,49,0.00,,,0.00,VWS V14.01,2013-03-18 22:50:00,
2013-03-18 16:52:00,39.7,22.6,29.75,NW,307,8.0,9.0,50,0.00,,,0.00,VWS V14.01,2013-03-18 22:52:00,
2013-03-18 16:55:00,40.2,23.5,29.75,WSW,252,8.0,12.0,51,0.00,,,0.00,VWS V14.01,2013-03-18 22:55:00,
2013-03-18 16:57:00,40.5,24.3,29.75,WSW,257,12.0,14.0,52,0.00,,,0.00,VWS V14.01,2013-03-18 22:57:00,
2013-03-18 17:00:00,40.4,25.1,29.75,WNW,293,8.0,14.0,54,0.00,,,0.00,VWS V14.01,2013-03-18 23:00:00,
2013-03-18 17:02:00,40.6,23.0,29.75,West,259,6.0,15.0,49,0.00,,,0.00,VWS V14.01,2013-03-18 23:02:00,
2013-03-18 17:05:00,40.5,23.3,29.75,West,267,10.0,15.0,50,0.00,,,0.00,VWS V14.01,2013-03-18 23:05:00,
2013-03-18 17:07:00,40.2,23.1,29.75,SW,230,11.0,18.0,50,0.00,,,0.00,VWS V14.01,2013-03-18 23:07:00,
2013-03-18 17:10:00,40.1,24.4,29.75,West,259,10.0,18.0,53,0.00,,,0.00,VWS V14.01,2013-03-18 23:10:00,
2013-03-18 17:12:00,39.6,22.5,29.75,West,281,8.0,13.0,50,0.00,,,0.00,VWS V14.01,2013-03-18 23:12:00,
2013-03-18 17:15:00,39.2,22.6,29.75,West,279,6.0,13.0,51,0.00,,,0.00,VWS V14.01,2013-03-18 23:15:00,
2013-03-18 17:17:00,38.9,23.7,29.75,West,274,7.0,16.0,54,0.00,,,0.00,VWS V14.01,2013-03-18 23:17:00,
2013-03-18 17:20:00,38.7,23.9,29.76,NW,307,7.0,16.0,55,0.00,,,0.00,VWS V14.01,2013-03-18 23:20:00,
2013-03-18 17:22:00,38.3,23.6,29.76,NW,319,9.0,13.0,55,0.00,,,0.00,VWS V14.01,2013-03-18 23:22:00,
2013-03-18 17:25:00,37.9,24.0,29.76,NW,304,8.0,13.0,57,0.00,,,0.00,VWS V14.01,2013-03-18 23:25:00,
2013-03-18 17:27:00,37.8,24.4,29.76,WNW,298,4.0,8.0,58,0.00,,,0.00,VWS V14.01,2013-03-18 23:27:00,
2013-03-18 17:30:00,37.7,23.4,29.75,NW,322,9.0,9.0,56,0.00,,,0.00,VWS V14.01,2013-03-18 23:30:00,
2013-03-18 17:32:00,37.6,23.8,29.75,NW,313,7.0,9.0,57,0.00,,,0.00,VWS V14.01,2013-03-18 23:32:00,
2013-03-18 17:35:00,37.7,23.4,29.76,WNW,297,5.0,9.0,56,0.00,,,0.00,VWS V14.01,2013-03-18 23:35:00,
2013-03-18 17:37:00,38.1,22.9,29.76,NW,304,9.0,15.0,54,0.00,,,0.00,VWS V14.01,2013-03-18 23:37:00,
2013-03-18 17:40:00,38.1,23.8,29.76,NW,312,4.0,15.0,56,0.00,,,0.00,VWS V14.01,2013-03-18 23:40:00,
2013-03-18 17:42:00,38.4,22.8,29.76,NW,304,7.0,11.0,53,0.00,,,0.00,VWS V14.01,2013-03-18 23:42:00,
2013-03-18 17:45:00,38.5,23.3,29.76,WNW,297,6.0,11.0,54,0.00,,,0.00,VWS V14.01,2013-03-18 23:45:00,
2013-03-18 17:47:00,38.5,24.6,29.76,WSW,246,9.0,11.0,57,0.00,,,0.00,VWS V14.01,2013-03-18 23:47:00,
2013-03-18 17:50:00,38.3,24.0,29.76,WSW,257,3.0,12.0,56,0.00,,,0.00,VWS V14.01,2013-03-18 23:50:00,
2013-03-18 17:52:00,38.3,24.8,29.76,SW,236,5.0,10.0,58,0.00,,,0.00,VWS V14.01,2013-03-18 23:52:00,
2013-03-18 17:55:00,38.5,24.6,29.76,NW,305,5.0,11.0,57,0.00,,,0.00,VWS V14.01,2013-03-18 23:55:00,
2013-03-18 17:58:00,38.3,24.4,29.76,WNW,300,6.0,9.0,57,0.00,,,0.00,VWS V14.01,2013-03-18 23:58:00,
2013-03-18 18:00:00,38.0,22.9,29.76,West,276,6.0,9.0,54,0.00,,,0.00,VWS V14.01,2013-03-19 00:00:00,
2013-03-18 18:03:00,38.0,23.3,29.76,WNW,290,6.0,8.0,55,0.00,,,0.00,VWS V14.01,2013-03-19 00:03:00,
2013-03-18 18:05:00,38.2,23.0,29.76,West,262,5.0,8.0,54,0.00,,,0.00,VWS V14.01,2013-03-19 00:05:00,
2013-03-18 18:08:00,38.1,23.4,29.76,West,262,8.0,8.0,55,0.00,,,0.00,VWS V14.01,2013-03-19 00:08:00,
2013-03-18 18:10:00,38.2,23.5,29.76,WNW,293,6.0,8.0,55,0.00,,,0.00,VWS V14.01,2013-03-19 00:10:00,
2013-03-18 18:13:00,38.2,22.6,29.76,NNW,328,4.0,8.0,53,0.00,,,0.00,VWS V14.01,2013-03-19 00:13:00,
2013-03-18 18:15:00,38.3,23.1,29.76,WNW,298,5.0,8.0,54,0.00,,,0.00,VWS V14.01,2013-03-19 00:15:00,
2013-03-18 18:18:00,38.7,23.1,29.76,WNW,301,7.0,12.0,53,0.00,,,0.00,VWS V14.01,2013-03-19 00:18:00,
2013-03-18 18:20:00,38.7,23.1,29.76,WNW,290,6.0,12.0,53,0.00,,,0.00,VWS V14.01,2013-03-19 00:20:00,
2013-03-18 18:23:00,38.8,23.1,29.76,WNW,293,5.0,10.0,53,0.00,,,0.00,VWS V14.01,2013-03-19 00:23:00,
2013-03-18 18:25:00,38.5,22.9,29.76,WNW,293,6.0,11.0,53,0.00,,,0.00,VWS V14.01,2013-03-19 00:25:00,
2013-03-18 18:28:00,38.5,23.3,29.76,WNW,297,6.0,7.0,54,0.00,,,0.00,VWS V14.01,2013-03-19 00:28:00,
2013-03-18 18:30:00,38.6,22.5,29.76,West,271,5.0,7.0,52,0.00,,,0.00,VWS V14.01,2013-03-19 00:30:00,
2013-03-18 18:33:00,38.8,22.7,29.77,WSW,242,7.0,8.0,52,0.00,,,0.00,VWS V14.01,2013-03-19 00:33:00,
2013-03-18 18:35:00,38.8,22.2,29.77,WSW,257,2.0,8.0,51,0.00,,,0.00,VWS V14.01,2013-03-19 00:35:00,
2013-03-18 18:38:00,38.9,22.8,29.77,West,271,3.0,6.0,52,0.00,,,0.00,VWS V14.01,2013-03-19 00:38:00,
2013-03-18 18:40:00,39.1,23.0,29.77,WSW,252,6.0,8.0,52,0.00,,,0.00,VWS V14.01,2013-03-19 00:40:00,
2013-03-18 18:43:00,39.1,22.0,29.77,WNW,292,6.0,7.0,50,0.00,,,0.00,VWS V14.01,2013-03-19 00:43:00,
2013-03-18 18:45:00,39.1,22.5,29.77,WSW,255,6.0,7.0,51,0.00,,,0.00,VWS V14.01,2013-03-19 00:45:00,
2013-03-18 18:48:00,38.9,22.3,29.77,West,279,5.0,6.0,51,0.00,,,0.00,VWS V14.01,2013-03-19 00:48:00,
2013-03-18 18:50:00,38.8,22.7,29.77,West,278,4.0,6.0,52,0.00,,,0.00,VWS V14.01,2013-03-19 00:50:00,
2013-03-18 18:53:00,38.7,23.5,29.77,WSW,250,6.0,8.0,54,0.00,,,0.00,VWS V14.01,2013-03-19 00:53:00,
2013-03-18 18:55:00,38.5,22.0,29.77,WSW,252,6.0,10.0,51,0.00,,,0.00,VWS V14.01,2013-03-19 00:55:00,
2013-03-18 18:58:00,38.1,21.6,29.77,SW,232,9.0,13.0,51,0.00,,,0.00,VWS V14.01,2013-03-19 00:58:00,
2013-03-18 19:00:00,37.8,21.8,29.77,SW,222,9.0,13.0,52,0.00,,,0.00,VWS V14.01,2013-03-19 01:00:00,
2013-03-18 19:03:00,37.4,21.4,29.77,WSW,240,9.0,11.0,52,0.00,,,0.00,VWS V14.01,2013-03-19 01:03:00,
2013-03-18 19:05:00,37.3,21.8,29.77,WSW,243,5.0,11.0,53,0.00,,,0.00,VWS V14.01,2013-03-19 01:05:00,
2013-03-18 19:08:00,37.0,21.9,29.77,West,278,3.0,9.0,54,0.00,,,0.00,VWS V14.01,2013-03-19 01:08:00,
2013-03-18 19:10:00,36.9,22.3,29.77,WSW,255,4.0,9.0,55,0.00,,,0.00,VWS V14.01,2013-03-19 01:10:00,
2013-03-18 19:13:00,36.6,21.5,29.77,WSW,255,5.0,10.0,54,0.00,,,0.00,VWS V14.01,2013-03-19 01:13:00,
2013-03-18 19:15:00,36.4,22.2,29.77,WSW,249,7.0,10.0,56,0.00,,,0.00,VWS V14.01,2013-03-19 01:15:00,
2013-03-18 19:18:00,36.1,22.4,29.77,West,281,4.0,7.0,57,0.00,,,0.00,VWS V14.01,2013-03-19 01:18:00,
2013-03-18 19:20:00,36.0,22.3,29.77,WNW,284,2.0,7.0,57,0.00,,,0.00,VWS V14.01,2013-03-19 01:20:00,
2013-03-18 19:23:00,35.8,21.6,29.77,West,281,4.0,6.0,56,0.00,,,0.00,VWS V14.01,2013-03-19 01:23:00,
2013-03-18 19:25:00,35.8,21.6,29.77,WSW,255,4.0,6.0,56,0.00,,,0.00,VWS V14.01,2013-03-19 01:25:00,
2013-03-18 19:28:00,35.5,22.6,29.77,West,260,2.0,5.0,59,0.00,,,0.00,VWS V14.01,2013-03-19 01:28:00,
2013-03-18 19:30:00,35.2,22.3,29.77,WSW,243,3.0,5.0,59,0.00,,,0.00,VWS V14.01,2013-03-19 01:30:00,
2013-03-18 19:33:00,34.9,22.0,29.77,SW,236,3.0,4.0,59,0.00,,,0.00,VWS V14.01,2013-03-19 01:33:00,
2013-03-18 19:35:00,34.8,22.0,29.77,West,260,3.0,4.0,59,0.00,,,0.00,VWS V14.01,2013-03-19 01:35:00,
2013-03-18 19:38:00,34.6,22.2,29.77,WSW,257,4.0,4.0,60,0.00,,,0.00,VWS V14.01,2013-03-19 01:38:00,
2013-03-18 19:40:00,34.6,21.8,29.77,WSW,248,3.0,4.0,59,0.00,,,0.00,VWS V14.01,2013-03-19 01:40:00,
2013-03-18 19:43:00,34.6,21.8,29.77,WSW,238,5.0,7.0,59,0.00,,,0.00,VWS V14.01,2013-03-19 01:43:00,
2013-03-18 19:45:00,34.5,21.7,29.78,WSW,243,5.0,7.0,59,0.00,,,0.00,VWS V14.01,2013-03-19 01:45:00,
2013-03-18 19:48:00,34.6,21.4,29.78,SW,234,3.0,6.0,58,0.00,,,0.00,VWS V14.01,2013-03-19 01:48:00,
2013-03-18 19:50:00,34.6,21.8,29.78,SW,235,3.0,6.0,59,0.00,,,0.00,VWS V14.01,2013-03-19 01:50:00,
2013-03-18 19:53:00,34.1,22.8,29.78,SW,225,2.0,5.0,63,0.00,,,0.00,VWS V14.01,2013-03-19 01:53:00,
2013-03-18 19:55:00,33.8,22.9,29.78,SW,228,1.0,5.0,64,0.00,,,0.00,VWS V14.01,2013-03-19 01:55:00,
2013-03-18 19:58:00,33.5,23.0,29.78,SW,231,6.0,7.0,65,0.00,,,0.00,VWS V14.01,2013-03-19 01:58:00,
2013-03-18 20:00:00,33.7,22.1,29.78,SW,220,2.0,7.0,62,0.00,,,0.00,VWS V14.01,2013-03-19 02:00:00,
2013-03-18 20:03:00,34.0,21.6,29.78,WSW,241,6.0,7.0,60,0.00,,,0.00,VWS V14.01,2013-03-19 02:03:00,
2013-03-18 20:05:00,34.1,21.7,29.78,WSW,239,4.0,7.0,60,0.00,,,0.00,VWS V14.01,2013-03-19 02:05:00,
2013-03-18 20:08:00,34.0,22.7,29.78,WSW,245,5.0,5.0,63,0.00,,,0.00,VWS V14.01,2013-03-19 02:08:00,
2013-03-18 20:10:00,33.9,21.9,29.78,SW,220,4.0,5.0,61,0.00,,,0.00,VWS V14.01,2013-03-19 02:10:00,
2013-03-18 20:13:00,34.0,21.6,29.78,SW,225,5.0,9.0,60,0.00,,,0.00,VWS V14.01,2013-03-19 02:13:00,
2013-03-18 20:15:00,34.1,21.3,29.78,SW,229,5.0,9.0,59,0.00,,,0.00,VWS V14.01,2013-03-19 02:15:00,
2013-03-18 20:18:00,34.1,21.3,29.79,WSW,257,4.0,7.0,59,0.00,,,0.00,VWS V14.01,2013-03-19 02:18:00,
2013-03-18 20:20:00,34.1,21.3,29.79,WSW,239,5.0,7.0,59,0.00,,,0.00,VWS V14.01,2013-03-19 02:20:00,
2013-03-18 20:23:00,34.0,21.6,29.79,WSW,240,3.0,6.0,60,0.00,,,0.00,VWS V14.01,2013-03-19 02:23:00,
2013-03-18 20:25:00,33.9,21.5,29.79,WSW,243,3.0,6.0,60,0.00,,,0.00,VWS V14.01,2013-03-19 02:25:00,
2013-03-18 20:28:00,33.9,21.5,29.79,West,267,3.0,7.0,60,0.00,,,0.00,VWS V14.01,2013-03-19 02:28:00,
2013-03-18 20:30:00,33.9,21.9,29.79,West,264,5.0,7.0,61,0.00,,,0.00,VWS V14.01,2013-03-19 02:30:00,
2013-03-18 20:33:00,33.8,21.8,29.79,West,281,4.0,8.0,61,0.00,,,0.00,VWS V14.01,2013-03-19 02:33:00,
2013-03-18 20:35:00,33.7,21.7,29.79,West,259,4.0,8.0,61,0.00,,,0.00,VWS V14.01,2013-03-19 02:35:00,
2013-03-18 20:38:00,33.6,22.0,29.79,West,276,3.0,7.0,62,0.00,,,0.00,VWS V14.01,2013-03-19 02:38:00,
2013-03-18 20:40:00,33.5,21.9,29.79,WSW,249,5.0,7.0,62,0.00,,,0.00,VWS V14.01,2013-03-19 02:40:00,
2013-03-18 20:43:00,33.5,21.5,29.80,WSW,256,3.0,5.0,61,0.00,,,0.00,VWS V14.01,2013-03-19 02:43:00,
2013-03-18 20:45:00,33.4,21.4,29.80,WSW,253,2.0,5.0,61,0.00,,,0.00,VWS V14.01,2013-03-19 02:45:00,
2013-03-18 20:48:00,33.2,22.0,29.80,West,266,2.0,3.0,63,0.00,,,0.00,VWS V14.01,2013-03-19 02:48:00,
2013-03-18 20:50:00,33.2,21.6,29.80,West,269,3.0,4.0,62,0.00,,,0.00,VWS V14.01,2013-03-19 02:50:00,
2013-03-18 20:53:00,33.0,21.8,29.80,West,274,2.0,4.0,63,0.00,,,0.00,VWS V14.01,2013-03-19 02:53:00,
2013-03-18 20:55:00,32.9,22.1,29.80,West,269,2.0,4.0,64,0.00,,,0.00,VWS V14.01,2013-03-19 02:55:00,
2013-03-18 20:58:00,32.9,22.1,29.80,West,267,4.0,7.0,64,0.00,,,0.00,VWS V14.01,2013-03-19 02:58:00,
2013-03-18 21:00:00,33.0,22.2,29.80,West,265,2.0,7.0,64,0.00,,,0.00,VWS V14.01,2013-03-19 03:00:00,
2013-03-18 21:03:00,33.3,21.3,29.80,WSW,255,7.0,7.0,61,0.00,,,0.00,VWS V14.01,2013-03-19 03:03:00,
2013-03-18 21:05:00,33.5,21.5,29.80,SW,233,5.0,7.0,61,0.00,,,0.00,VWS V14.01,2013-03-19 03:05:00,
2013-03-18 21:08:00,33.8,21.8,29.80,WSW,252,4.0,7.0,61,0.00,,,0.00,VWS V14.01,2013-03-19 03:08:00,
2013-03-18 21:10:00,33.9,21.9,29.80,WSW,245,4.0,7.0,61,0.00,,,0.00,VWS V14.01,2013-03-19 03:10:00,
2013-03-18 21:13:00,33.9,21.9,29.81,WSW,239,5.0,6.0,61,0.00,,,0.00,VWS V14.01,2013-03-19 03:13:00,
2013-03-18 21:15:00,33.9,21.9,29.81,SW,228,5.0,6.0,61,0.00,,,0.00,VWS V14.01,2013-03-19 03:15:00,
2013-03-18 21:18:00,33.8,22.2,29.81,WSW,242,3.0,7.0,62,0.00,,,0.00,VWS V14.01,2013-03-19 03:18:00,
2013-03-18 21:20:00,33.7,22.1,29.81,WSW,238,3.0,7.0,62,0.00,,,0.00,VWS V14.01,2013-03-19 03:20:00,
2013-03-18 21:23:00,33.4,22.2,29.82,SW,220,1.0,4.0,63,0.00,,,0.00,VWS V14.01,2013-03-19 03:23:00,
2013-03-18 21:25:00,33.3,22.5,29.82,SW,217,2.0,4.0,64,0.00,,,0.00,VWS V14.01,2013-03-19 03:25:00,
2013-03-18 21:29:00,32.9,22.4,29.82,SW,225,1.0,2.0,65,0.00,,,0.00,VWS V14.01,2013-03-19 03:29:00,
2013-03-18 21:30:00,32.8,22.3,29.82,SW,219,2.0,2.0,65,0.00,,,0.00,VWS V14.01,2013-03-19 03:30:00,
2013-03-18 21:34:00,32.8,22.0,29.82,SSE,158,1.0,3.0,64,0.00,,,0.00,VWS V14.01,2013-03-19 03:34:00,
2013-03-18 21:35:00,32.8,21.6,29.82,SSE,158,0.0,3.0,63,0.00,,,0.00,VWS V14.01,2013-03-19 03:35:00,
2013-03-18 21:39:00,32.7,21.9,29.82,SE,124,1.0,2.0,64,0.00,,,0.00,VWS V14.01,2013-03-19 03:39:00,
2013-03-18 21:40:00,32.6,22.1,29.82,ESE,115,0.0,2.0,65,0.00,,,0.00,VWS V14.01,2013-03-19 03:40:00,
2013-03-18 21:44:00,32.3,21.9,29.82,ESE,117,2.0,2.0,65,0.00,,,0.00,VWS V14.01,2013-03-19 03:44:00,
2013-03-18 21:45:00,32.3,21.9,29.82,SE,141,1.0,2.0,65,0.00,,,0.00,VWS V14.01,2013-03-19 03:45:00,
2013-03-18 21:49:00,32.4,22.0,29.83,SSE,155,0.0,2.0,65,0.00,,,0.00,VWS V14.01,2013-03-19 03:49:00,
2013-03-18 21:50:00,32.3,21.9,29.83,South,179,2.0,2.0,65,0.00,,,0.00,VWS V14.01,2013-03-19 03:50:00,
2013-03-18 21:54:00,32.3,21.9,29.83,SSW,198,0.0,2.0,65,0.00,,,0.00,VWS V14.01,2013-03-19 03:54:00,
2013-03-18 21:55:00,32.3,21.9,29.83,SE,131,2.0,3.0,65,0.00,,,0.00,VWS V14.01,2013-03-19 03:55:00,
2013-03-18 21:59:00,32.4,21.6,29.83,SSE,149,1.0,2.0,64,0.00,,,0.00,VWS V14.01,2013-03-19 03:59:00,
2013-03-18 22:00:00,32.4,22.0,29.83,SSE,149,0.0,2.0,65,0.00,,,0.00,VWS V14.01,2013-03-19 04:00:00,
2013-03-18 22:05:00,32.2,21.8,29.83,South,176,0.0,0.0,65,0.00,,,0.00,VWS V14.01,2013-03-19 04:05:00,
2013-03-18 22:10:00,32.2,21.4,29.83,SW,228,1.0,1.0,64,0.00,,,0.00,VWS V14.01,2013-03-19 04:10:00,
2013-03-18 22:15:00,32.4,21.6,29.84,NW,319,2.0,2.0,64,0.00,,,0.00,VWS V14.01,2013-03-19 04:15:00,
2013-03-18 22:20:00,32.5,22.4,29.84,North,355,2.0,2.0,66,0.00,,,0.00,VWS V14.01,2013-03-19 04:20:00,
2013-03-18 22:25:00,32.4,22.3,29.84,North,10,1.0,2.0,66,0.00,,,0.00,VWS V14.01,2013-03-19 04:25:00,
2013-03-18 22:30:00,32.4,22.3,29.85,North,354,3.0,3.0,66,0.00,,,0.00,VWS V14.01,2013-03-19 04:30:00,
2013-03-18 22:35:00,32.5,21.3,29.85,NW,316,2.0,3.0,63,0.00,,,0.00,VWS V14.01,2013-03-19 04:35:00,
2013-03-18 22:40:00,33.1,23.0,29.85,North,353,2.0,3.0,66,0.00,,,0.00,VWS V14.01,2013-03-19 04:40:00,
2013-03-18 22:45:00,32.9,22.4,29.85,North,354,2.0,2.0,65,0.00,,,0.00,VWS V14.01,2013-03-19 04:45:00,
2013-03-18 22:50:00,33.0,22.9,29.86,NW,309,3.0,3.0,66,0.00,,,0.00,VWS V14.01,2013-03-19 04:50:00,
2013-03-18 22:55:00,33.2,22.4,29.86,West,269,3.0,4.0,64,0.00,,,0.00,VWS V14.01,2013-03-19 04:55:00,
2013-03-18 23:00:00,33.5,22.3,29.86,WNW,297,2.0,4.0,63,0.00,,,0.00,VWS V14.01,2013-03-19 05:00:00,
2013-03-18 23:05:00,33.5,22.3,29.87,West,277,4.0,5.0,63,0.00,,,0.00,VWS V14.01,2013-03-19 05:05:00,
2013-03-18 23:10:00,33.6,22.0,29.87,NW,315,2.0,3.0,62,0.00,,,0.00,VWS V14.01,2013-03-19 05:10:00,
2013-03-18 23:15:00,33.6,22.4,29.87,WNW,288,4.0,7.0,63,0.00,,,0.00,VWS V14.01,2013-03-19 05:15:00,
2013-03-18 23:16:00,33.6,22.4,29.87,West,268,4.0,5.0,63,0.00,,,0.00,VWS V14.01,2013-03-19 05:16:00,
2013-03-18 23:20:00,33.6,22.4,29.88,WNW,297,12.0,17.0,63,0.00,,,0.00,VWS V14.01,2013-03-19 05:20:00,
2013-03-18 23:21:00,33.5,22.6,29.88,NW,306,8.0,17.0,64,0.00,,,0.00,VWS V14.01,2013-03-19 05:21:00,
2013-03-18 23:25:00,33.2,23.1,29.88,WNW,296,8.0,17.0,66,0.00,,,0.00,VWS V14.01,2013-03-19 05:25:00,
2013-03-18 23:26:00,33.1,23.0,29.88,NW,306,8.0,11.0,66,0.00,,,0.00,VWS V14.01,2013-03-19 05:26:00,
2013-03-18 23:30:00,32.8,23.4,29.88,NW,313,8.0,13.0,68,0.00,,,0.00,VWS V14.01,2013-03-19 05:30:00,
2013-03-18 23:31:00,32.7,23.7,29.88,NNW,328,6.0,9.0,69,0.00,,,0.00,VWS V14.01,2013-03-19 05:31:00,
2013-03-18 23:35:00,32.5,23.8,29.88,NW,308,6.0,10.0,70,0.00,,,0.00,VWS V14.01,2013-03-19 05:35:00,
2013-03-18 23:36:00,32.5,23.8,29.88,NNW,332,6.0,7.0,70,0.00,,,0.00,VWS V14.01,2013-03-19 05:36:00,
2013-03-18 23:40:00,32.4,23.4,29.88,NNE,15,4.0,7.0,69,0.00,,,0.00,VWS V14.01,2013-03-19 05:40:00,
2013-03-18 23:41:00,32.4,23.7,29.88,North,6,4.0,6.0,70,0.00,,,0.00,VWS V14.01,2013-03-19 05:41:00,
2013-03-18 23:45:00,32.1,24.4,29.88,NNE,26,3.0,6.0,73,0.00,,,0.00,VWS V14.01,2013-03-19 05:45:00,
2013-03-18 23:46:00,32.0,24.7,29.88,NNE,29,4.0,5.0,74,0.00,,,0.00,VWS V14.01,2013-03-19 05:46:00,
2013-03-18 23:50:00,31.6,24.9,29.88,NE,44,3.0,5.0,76,0.00,,,0.00,VWS V14.01,2013-03-19 05:50:00,
2013-03-18 23:51:00,31.5,24.8,29.88,NE,44,3.0,4.0,76,0.00,,,0.00,VWS V14.01,2013-03-19 05:51:00,
2013-03-18 23:55:00,31.1,24.8,29.88,NE,44,2.0,4.0,77,0.00,,,0.00,VWS V14.01,2013-03-19 05:55:00,
2013-03-18 23:56:00,31.0,25.0,29.88,NE,43,2.0,2.0,78,0.00,,,0.00,VWS V14.01,2013-03-19 05:56:00,